Time;durP1;ratioP1;P1;durP2;ratioP2;P2;SDS_P1;SDS_P2;PMS_P1;PMS_P2;Temp;Humidity;BMP_temperature;BMP_pressure;BME280_temperature;BME280_humidity;BME280_pressure;Samples;Min_cycle;Max_cycle;Signal;HPM_P1;HPM_P2
2023/05/18 00:02:48;;;;;;;18.25;5.45;;;;;;;19.37;42.33;100241.51;1813166;79;21196;-81
2023/05/18 00:05:56;;;;;;;12.18;5.58;;;;;;;19.11;42.85;100250.22;1812213;79;21197;-80
2023/05/18 00:09:02;;;;;;;12.82;5.53;;;;;;;19.03;42.86;100244.45;1813109;79;21177;-82
2023/05/18 00:12:09;;;;;;;14.83;5.70;;;;;;;19.24;42.60;100237.53;1813684;79;21241;-82
2023/05/18 00:15:15;;;;;;;16.35;5.58;;;;;;;19.25;42.65;100243.95;1812176;79;21192;-82
2023/05/18 00:18:23;;;;;;;10.58;5.90;;;;;;;19.08;42.98;100245.13;1813595;79;21188;-82
2023/05/18 00:21:32;;;;;;;14.13;5.60;;;;;;;18.88;43.43;100238.47;1813954;79;21153;-82
2023/05/18 00:24:36;;;;;;;13.20;6.00;;;;;;;18.94;43.53;100235.30;1813720;79;21197;-79
2023/05/18 00:27:41;;;;;;;12.43;5.83;;;;;;;18.94;43.61;100238.91;1813909;79;21196;-80
2023/05/18 00:30:46;;;;;;;15.15;5.90;;;;;;;18.92;43.76;100230.55;1813962;79;21149;-80
2023/05/18 00:33:53;;;;;;;7.05;4.62;;;;;;;18.87;44.06;100227.92;1813365;79;21561;-82
2023/05/18 00:36:59;;;;;;;17.48;5.62;;;;;;;18.89;44.22;100233.22;1813741;79;21141;-82
2023/05/18 00:40:05;;;;;;;15.75;6.00;;;;;;;18.74;44.54;100225.86;1814856;79;21168;-80
2023/05/18 00:43:11;;;;;;;14.68;5.03;;;;;;;18.71;44.74;100223.54;1819240;79;21137;-82
2023/05/18 00:46:17;;;;;;;12.60;5.33;;;;;;;18.53;45.09;100218.81;1819675;79;21149;-82
2023/05/18 00:49:25;;;;;;;13.65;5.67;;;;;;;18.32;45.51;100217.35;1818235;79;21156;-81
2023/05/18 00:52:31;;;;;;;11.03;5.67;;;;;;;18.29;45.64;100209.49;1818200;79;21141;-82
2023/05/18 00:55:37;;;;;;;10.00;5.12;;;;;;;18.36;45.55;100214.44;1819676;79;21164;-78
2023/05/18 00:58:44;;;;;;;12.03;5.25;;;;;;;18.24;45.76;100220.41;1819324;79;21732;-79
2023/05/18 01:01:52;;;;;;;8.00;5.53;;;;;;;18.21;45.87;100213.94;1819633;79;21172;-78
2023/05/18 01:04:59;;;;;;;8.53;5.85;;;;;;;18.08;46.16;100219.94;1818378;79;21776;-81
2023/05/18 01:08:06;;;;;;;18.40;6.35;;;;;;;18.00;46.43;100222.14;1819779;79;21687;-80
2023/05/18 01:11:20;;;;;;;24.32;6.85;;;;;;;18.09;46.28;100213.31;1819801;79;21165;-81
2023/05/18 01:14:45;;;;;;;17.75;6.33;;;;;;;18.14;46.20;100216.24;1818839;79;21180;-79
2023/05/18 01:18:31;;;;;;;14.28;7.12;;;;;;;18.13;46.21;100222.02;1789901;79;21156;-80
2023/05/18 01:21:52;;;;;;;17.57;6.83;;;;;;;18.06;46.22;100224.83;1811323;79;21184;-81
2023/05/18 01:25:03;;;;;;;12.30;5.28;;;;;;;18.20;45.96;100221.94;1811038;79;21505;-79
2023/05/18 01:28:12;;;;;;;12.93;6.60;;;;;;;18.19;45.94;100228.55;1836383;78;21241;-83
2023/05/18 01:31:19;;;;;;;13.48;6.08;;;;;;;18.25;45.86;100222.94;1835703;78;21707;-83
2023/05/18 01:34:26;;;;;;;12.98;5.80;;;;;;;18.35;45.68;100217.75;1822646;78;21777;-81
2023/05/18 01:37:33;;;;;;;9.45;6.05;;;;;;;18.29;45.70;100226.95;1822195;78;21135;-81
2023/05/18 01:40:46;;;;;;;17.85;6.47;;;;;;;18.20;45.96;100229.70;1820896;77;21222;-82
2023/05/18 01:43:56;;;;;;;11.33;5.85;;;;;;;18.22;45.98;100232.27;1817096;79;21182;-82
2023/05/18 01:47:20;;;;;;;17.77;6.47;;;;;;;18.25;45.92;100231.78;1816012;79;21187;-82
2023/05/18 01:50:27;;;;;;;10.93;6.97;;;;;;;18.20;46.00;100237.16;1817650;79;21147;-78
2023/05/18 01:53:46;;;;;;;15.48;7.17;;;;;;;17.97;46.39;100228.11;1817521;79;21156;-81
2023/05/18 01:56:52;;;;;;;12.20;6.72;;;;;;;17.99;46.51;100235.67;1817773;79;21140;-81
2023/05/18 02:00:03;;;;;;;18.77;7.03;;;;;;;17.99;46.58;100227.37;1817213;79;21186;-78
2023/05/18 02:03:09;;;;;;;21.27;7.10;;;;;;;18.06;46.53;100233.13;1817551;79;21733;-82
2023/05/18 02:06:16;;;;;;;17.37;7.47;;;;;;;18.10;46.45;100234.38;1793570;79;21203;-79
2023/05/18 02:09:21;;;;;;;15.88;7.50;;;;;;;18.08;46.54;100244.00;1816868;79;21188;-79
2023/05/18 02:12:27;;;;;;;19.02;7.42;;;;;;;18.12;46.52;100246.09;1815981;79;21144;-79
2023/05/18 02:15:33;;;;;;;24.67;6.67;;;;;;;18.18;46.56;100245.70;1815916;79;21156;-82
2023/05/18 02:18:39;;;;;;;17.65;8.25;;;;;;;18.26;46.45;100239.05;1817173;79;21735;-82
2023/05/18 02:21:45;;;;;;;15.08;7.47;;;;;;;18.40;46.26;100240.59;1817052;79;21739;-79
2023/05/18 02:24:52;;;;;;;17.73;8.25;;;;;;;18.54;46.19;100244.07;1816568;79;21215;-82
2023/05/18 02:27:59;;;;;;;13.60;7.40;;;;;;;18.74;46.11;100244.71;1817404;79;21182;-80
2023/05/18 02:31:14;;;;;;;14.15;6.92;;;;;;;18.96;45.83;100246.98;1817402;79;21137;-79
2023/05/18 02:34:21;;;;;;;20.92;7.03;;;;;;;19.23;45.30;100247.48;1817691;79;21156;-82
2023/05/18 02:37:27;;;;;;;15.78;6.47;;;;;;;19.63;44.69;100247.25;1816856;79;21155;-81
2023/05/18 02:40:32;;;;;;;13.08;7.15;;;;;;;19.83;44.26;100244.69;1817405;79;21168;-82
2023/05/18 02:43:38;;;;;;;11.25;6.33;;;;;;;20.17;43.53;100243.87;1817265;79;21168;-81
2023/05/18 02:46:45;;;;;;;21.45;7.15;;;;;;;20.37;42.86;100252.38;1817425;79;21148;-79
2023/05/18 02:49:51;;;;;;;13.18;6.00;;;;;;;20.47;42.68;100253.19;1816383;79;21155;-82
2023/05/18 02:52:58;;;;;;;15.68;7.25;;;;;;;20.82;42.17;100253.16;1816630;79;21176;-80
2023/05/18 02:56:03;;;;;;;15.75;7.28;;;;;;;20.99;41.65;100252.70;1815848;79;21176;-82
2023/05/18 02:59:14;;;;;;;15.40;6.95;;;;;;;21.17;41.25;100260.86;1816025;79;21208;-80
2023/05/18 03:02:06;;;;;;;15.45;7.70;;;;;;;21.39;40.81;100257.41;1815979;79;21171;-80
2023/05/18 03:05:15;;;;;;;14.35;8.05;;;;;;;21.46;40.58;100266.46;1816337;79;22045;-82
2023/05/18 03:08:25;;;;;;;14.07;8.47;;;;;;;21.72;40.31;100265.53;1816649;79;21187;-82
2023/05/18 03:11:31;;;;;;;14.20;7.40;;;;;;;21.92;39.94;100265.36;1817659;79;21129;-81
2023/05/18 03:14:38;;;;;;;17.57;7.37;;;;;;;22.27;39.49;100268.45;1816443;79;21171;-82
2023/05/18 03:17:45;;;;;;;11.80;7.50;;;;;;;22.53;39.12;100271.06;1817482;79;21137;-80
2023/05/18 03:20:53;;;;;;;13.28;7.47;;;;;;;22.86;38.71;100273.48;1816123;79;21172;-80
2023/05/18 03:23:57;;;;;;;10.55;7.00;;;;;;;22.79;38.82;100272.29;1816212;79;22092;-82
2023/05/18 03:27:05;;;;;;;13.28;7.65;;;;;;;22.97;38.67;100276.75;1816259;79;21137;-80
2023/05/18 03:30:11;;;;;;;17.25;8.10;;;;;;;23.24;38.35;100275.39;1816075;79;21178;-80
2023/05/18 03:33:16;;;;;;;16.60;7.12;;;;;;;23.39;38.25;100278.94;1817359;79;21124;-82
2023/05/18 03:36:24;;;;;;;18.00;8.00;;;;;;;23.49;38.18;100280.45;1815951;79;21238;-80
2023/05/18 03:39:30;;;;;;;11.55;6.87;;;;;;;23.51;38.25;100282.97;1816560;79;21152;-81
2023/05/18 03:42:36;;;;;;;13.88;7.92;;;;;;;23.58;38.03;100290.04;1817458;77;21234;-83
2023/05/18 03:45:43;;;;;;;22.20;9.03;;;;;;;23.39;38.28;100285.92;1817248;79;21818;-81
2023/05/18 03:48:52;;;;;;;15.38;8.83;;;;;;;23.49;38.25;100286.03;1816000;79;21183;-80
2023/05/18 03:51:59;;;;;;;18.70;8.28;;;;;;;23.65;37.82;100287.06;1817531;79;21673;-81
2023/05/18 03:55:05;;;;;;;17.10;8.18;;;;;;;23.70;37.49;100280.97;1816156;79;21179;-81
2023/05/18 03:58:11;;;;;;;21.10;9.18;;;;;;;23.67;36.99;100282.91;1817381;79;21116;-81
2023/05/18 04:01:22;;;;;;;16.57;9.40;;;;;;;23.52;37.14;100275.71;1817493;79;21093;-80
2023/05/18 04:04:27;;;;;;;15.35;7.87;;;;;;;23.24;37.43;100287.11;1816265;79;21219;-80
2023/05/18 04:07:32;;;;;;;13.22;8.33;;;;;;;23.14;37.21;100284.48;1816237;79;21140;-82
2023/05/18 04:10:38;;;;;;;19.52;9.00;;;;;;;23.01;37.33;100284.90;1817711;79;22029;-82
2023/05/18 04:13:46;;;;;;;14.73;7.87;;;;;;;22.93;37.66;100292.31;1788523;80;21782;-79
2023/05/18 04:16:51;;;;;;;13.85;8.25;;;;;;;22.88;37.91;100304.77;1767327;81;21161;-80
2023/05/18 04:20:00;;;;;;;15.05;8.05;;;;;;;23.00;38.08;100298.53;1767327;80;21196;-82
2023/05/18 04:23:08;;;;;;;23.67;8.75;;;;;;;23.13;37.95;100298.15;1767239;80;21154;-81
2023/05/18 04:26:18;;;;;;;13.88;8.80;;;;;;;23.17;37.75;100304.90;1767088;81;21282;-83
2023/05/18 04:29:23;;;;;;;18.80;8.73;;;;;;;23.39;37.67;100295.69;1766580;80;21201;-82
2023/05/18 04:32:29;;;;;;;18.70;8.80;;;;;;;23.57;37.33;100294.47;1767190;81;21209;-81
2023/05/18 04:35:34;;;;;;;17.27;8.15;;;;;;;23.53;37.77;100294.17;1761221;81;21194;-82
2023/05/18 04:38:34;;;;;;;17.17;7.83;;;;;;;23.67;37.21;100298.27;1762746;80;21203;-81
2023/05/18 04:41:27;;;;;;;19.48;8.05;;;;;;;23.90;37.21;100303.22;1762281;81;21210;-80
2023/05/18 04:44:14;;;;;;;13.98;8.98;;;;;;;24.27;36.45;100296.84;1762007;80;21524;-80
2023/05/18 04:47:22;;;;;;;17.15;8.25;;;;;;;24.43;36.19;100297.30;1761358;81;21719;-82
2023/05/18 04:50:29;;;;;;;17.52;9.05;;;;;;;24.50;36.33;100297.05;1797178;80;21130;-80
2023/05/18 04:53:37;;;;;;;10.85;7.22;;;;;;;24.76;35.60;100303.67;1798642;78;21738;-83
2023/05/18 04:56:42;;;;;;;20.50;8.75;;;;;;;24.91;35.81;100305.98;1797301;80;21765;-83
2023/05/18 04:59:48;;;;;;;12.15;7.78;;;;;;;25.00;35.19;100307.72;1797773;78;21193;-83
2023/05/18 05:02:54;;;;;;;18.73;7.90;;;;;;;25.28;35.16;100302.84;1798772;80;21175;-80
2023/05/18 05:05:54;;;;;;;12.95;8.18;;;;;;;25.45;34.87;100300.65;1798886;80;21154;-80
2023/05/18 05:09:00;;;;;;;15.18;7.53;;;;;;;25.49;34.74;100304.59;1798276;78;21196;-80
2023/05/18 05:12:06;;;;;;;18.65;8.38;;;;;;;25.42;33.74;100298.42;1798638;80;21730;-83
2023/05/18 05:15:13;;;;;;;9.50;6.55;;;;;;;25.36;34.08;100300.37;1797490;78;21197;-83
2023/05/18 05:18:18;;;;;;;16.12;8.05;;;;;;;25.29;34.60;100295.56;1797548;78;21201;-82
2023/05/18 05:21:24;;;;;;;15.85;7.87;;;;;;;25.26;35.17;100296.10;1798779;80;21197;-80
2023/05/18 05:24:26;;;;;;;18.40;7.30;;;;;;;25.76;34.08;100300.21;1775442;80;21180;-83
2023/05/18 05:27:30;;;;;;;17.40;8.30;;;;;;;25.90;33.81;100299.95;1762574;81;21811;-83
2023/05/18 05:30:36;;;;;;;16.80;8.00;;;;;;;26.08;33.56;100293.53;1767104;81;21740;-80
2023/05/18 05:33:41;;;;;;;15.78;8.13;;;;;;;26.20;33.10;100288.47;1765905;80;21717;-82
2023/05/18 05:36:47;;;;;;;15.05;7.90;;;;;;;26.53;32.61;100296.89;1763773;80;21179;-82
2023/05/18 05:39:53;;;;;;;22.02;8.53;;;;;;;26.72;32.15;100298.02;1766207;81;21204;-80
2023/05/18 05:43:01;;;;;;;12.65;8.68;;;;;;;26.89;32.49;100294.03;1765383;80;21177;-80
2023/05/18 05:46:08;;;;;;;12.78;7.78;;;;;;;26.99;32.64;100291.19;1755291;81;21173;-80
2023/05/18 05:49:08;;;;;;;24.40;8.80;;;;;;;27.10;31.84;100292.88;1773776;78;21201;-80
2023/05/18 05:52:13;;;;;;;14.75;8.28;;;;;;;27.20;31.60;100284.98;1764222;80;21793;-80
2023/05/18 05:55:19;;;;;;;17.80;9.95;;;;;;;27.10;31.63;100285.86;1764503;80;21212;-81
2023/05/18 05:58:25;;;;;;;25.20;11.18;;;;;;;27.33;31.12;100284.90;1765399;80;21166;-83
2023/05/18 06:01:33;;;;;;;20.88;9.30;;;;;;;27.55;30.65;100288.16;1744563;81;21178;-82
2023/05/18 06:04:39;;;;;;;18.50;10.43;;;;;;;27.45;30.69;100282.03;1730439;81;21216;-83
2023/05/18 06:07:45;;;;;;;16.10;9.53;;;;;;;27.56;31.16;100281.97;1764585;80;21141;-80
2023/05/18 06:10:52;;;;;;;20.17;9.15;;;;;;;27.58;30.19;100283.38;1734020;81;21572;-82
2023/05/18 06:13:59;;;;;;;16.32;9.60;;;;;;;27.84;30.57;100284.06;1756203;79;21784;-81
2023/05/18 06:17:04;;;;;;;15.90;9.83;;;;;;;27.67;30.57;100287.25;1785269;80;21139;-81
2023/05/18 06:20:11;;;;;;;27.60;9.60;;;;;;;27.59;30.88;100287.02;1770971;80;21136;-83
2023/05/18 06:23:22;;;;;;;14.98;9.63;;;;;;;27.72;31.49;100288.66;1786289;79;21162;-80
2023/05/18 06:26:26;;;;;;;;;;;;;;;27.51;31.45;100282.84;1789711;80;21155;-81
2023/05/18 06:29:45;;;;;;;16.30;9.70;;;;;;;27.95;30.99;100287.67;1750770;79;20184;-83
2023/05/18 06:33:09;;;;;;;13.50;9.78;;;;;;;27.98;30.70;100282.84;1722609;83;21267;-83
2023/05/18 06:36:14;;;;;;;28.35;10.95;;;;;;;28.11;30.71;100282.19;1779497;80;21156;-80
2023/05/18 06:39:20;;;;;;;15.48;10.18;;;;;;;28.26;30.31;100280.64;1781069;80;21191;-82
2023/05/18 06:42:25;;;;;;;15.38;10.53;;;;;;;28.20;29.96;100279.02;1785062;80;21215;-81
2023/05/18 06:45:20;;;;;;;20.40;11.85;;;;;;;28.23;30.11;100270.00;1784419;80;21159;-81
2023/05/18 06:48:34;;;;;;;14.90;10.98;;;;;;;28.39;30.43;100275.52;1784328;80;21218;-81
2023/05/18 06:51:41;;;;;;;16.77;11.00;;;;;;;28.45;30.08;100270.10;1778122;80;21711;-81
2023/05/18 06:54:46;;;;;;;15.85;10.98;;;;;;;28.65;29.95;100269.05;1778080;79;21712;-81
2023/05/18 06:57:57;;;;;;;15.65;10.65;;;;;;;28.73;29.41;100259.96;1778427;80;21695;-83
2023/05/18 07:01:01;;;;;;;15.05;11.10;;;;;;;28.75;29.06;100262.77;1787323;79;21740;-80
2023/05/18 07:04:07;;;;;;;16.40;11.33;;;;;;;28.89;29.72;100260.08;1781117;80;21191;-83
2023/05/18 07:07:13;;;;;;;16.50;10.32;;;;;;;29.00;29.37;100264.47;1785146;80;21179;-80
2023/05/18 07:10:18;;;;;;;15.83;11.05;;;;;;;29.44;28.98;100263.32;1765680;80;21199;-82
2023/05/18 07:13:26;;;;;;;16.20;10.75;;;;;;;29.53;28.50;100260.09;1754267;82;21199;-83
2023/05/18 07:16:34;;;;;;;17.00;11.53;;;;;;;29.63;28.20;100271.81;1772560;80;21235;-81
2023/05/18 07:19:40;;;;;;;14.85;10.88;;;;;;;29.64;28.03;100260.84;1783164;80;21237;-80
2023/05/18 07:22:46;;;;;;;16.48;10.68;;;;;;;29.64;28.70;100264.20;1771559;80;21708;-82
2023/05/18 07:25:52;;;;;;;17.07;10.15;;;;;;;29.82;27.91;100263.94;1774560;80;21701;-82
2023/05/18 07:28:58;;;;;;;18.67;11.15;;;;;;;29.74;27.34;100264.07;1781264;80;21767;-82
2023/05/18 07:32:03;;;;;;;15.00;10.10;;;;;;;29.73;27.10;100263.20;1771821;80;21206;-80
2023/05/18 07:35:03;;;;;;;13.48;10.63;;;;;;;29.85;28.50;100260.52;1789943;80;21174;-82
2023/05/18 07:38:10;;;;;;;19.80;10.68;;;;;;;30.03;27.57;100269.52;1758765;81;21218;-80
2023/05/18 07:41:15;;;;;;;12.45;9.80;;;;;;;30.18;27.04;100266.47;1780012;80;21136;-83
2023/05/18 07:44:21;;;;;;;18.35;10.98;;;;;;;30.10;25.57;100272.77;1788585;80;21179;-81
2023/05/18 07:47:27;;;;;;;14.70;10.40;;;;;;;30.10;25.18;100278.99;1788807;78;21177;-79
2023/05/18 07:50:34;;;;;;;16.60;10.38;;;;;;;30.25;25.79;100265.52;1797100;79;21173;-82
2023/05/18 07:53:40;;;;;;;11.70;9.90;;;;;;;30.39;26.21;100251.42;1789166;80;21218;-83
2023/05/18 07:56:46;;;;;;;15.18;10.78;;;;;;;30.51;25.15;100272.11;1787148;80;21223;-80
2023/05/18 07:59:53;;;;;;;14.10;10.20;;;;;;;30.61;23.80;100271.08;1766539;78;21182;-83
2023/05/18 08:03:02;;;;;;;17.87;10.25;;;;;;;30.73;24.15;100272.87;1810723;78;21148;-80
2023/05/18 08:06:08;;;;;;;19.10;10.82;;;;;;;30.60;23.20;100266.01;1767982;81;21195;-81
2023/05/18 08:09:14;;;;;;;13.90;9.88;;;;;;;30.43;23.23;100271.40;1767236;81;21218;-82
2023/05/18 08:12:20;;;;;;;15.60;9.98;;;;;;;30.41;24.35;100269.47;1738379;82;21147;-82
2023/05/18 08:15:26;;;;;;;18.23;10.60;;;;;;;30.34;23.03;100260.56;1739232;81;21569;-83
2023/05/18 08:18:33;;;;;;;17.30;10.48;;;;;;;30.35;22.94;100287.62;1759811;79;21238;-83
2023/05/18 08:21:39;;;;;;;11.93;9.28;;;;;;;30.39;22.91;100281.63;1794334;79;21684;-82
2023/05/18 08:24:45;;;;;;;13.78;8.98;;;;;;;30.47;23.46;100277.52;1778457;79;21794;-80
2023/05/18 08:27:50;;;;;;;13.38;9.10;;;;;;;30.48;22.87;100268.48;1754822;79;21156;-81
2023/05/18 08:30:56;;;;;;;21.27;9.73;;;;;;;30.45;21.21;100254.44;1746391;81;21249;-80
2023/05/18 08:34:02;;;;;;;14.15;9.08;;;;;;;30.44;22.15;100267.42;1762421;81;21190;-81
2023/05/18 08:37:08;;;;;;;14.50;8.93;;;;;;;30.57;21.54;100289.20;1779848;79;21141;-81
2023/05/18 08:40:15;;;;;;;17.00;8.60;;;;;;;30.52;22.42;100255.43;1760966;80;21848;-83
2023/05/18 08:43:32;;;;;;;13.50;9.08;;;;;;;30.38;21.48;100275.15;1757466;80;21215;-82
2023/05/18 08:46:47;;;;;;;15.98;9.35;;;;;;;30.36;21.60;100259.11;1754814;81;21195;-80
2023/05/18 08:49:53;;;;;;;12.18;9.75;;;;;;;30.48;21.65;100272.14;1749661;82;21199;-81
2023/05/18 08:53:02;;;;;;;15.53;9.23;;;;;;;30.56;22.27;100269.19;1761884;81;21214;-79
2023/05/18 08:56:08;;;;;;;16.48;9.58;;;;;;;30.62;21.47;100253.82;1751613;82;21136;-81
2023/05/18 08:59:13;;;;;;;13.45;8.98;;;;;;;30.73;22.78;100254.52;1737945;81;21734;-81
2023/05/18 09:02:19;;;;;;;13.13;8.98;;;;;;;30.79;22.49;100255.50;1738045;79;21159;-80
2023/05/18 09:05:27;;;;;;;13.20;8.90;;;;;;;30.87;21.72;100257.35;1769930;80;21198;-82
2023/05/18 09:08:34;;;;;;;13.18;9.65;;;;;;;30.76;22.00;100245.40;1729079;80;21198;-82
2023/05/18 09:11:41;;;;;;;12.68;9.15;;;;;;;30.73;22.39;100239.83;1772257;79;21198;-80
2023/05/18 09:14:47;;;;;;;20.75;9.80;;;;;;;30.82;22.51;100241.34;1762162;81;21227;-82
2023/05/18 09:17:54;;;;;;;19.02;9.00;;;;;;;30.94;22.85;100277.52;1765567;78;21167;-80
2023/05/18 09:21:01;;;;;;;12.68;8.60;;;;;;;30.94;21.54;100245.05;1778263;79;21175;-82
2023/05/18 09:24:10;;;;;;;15.45;10.15;;;;;;;31.04;22.28;100238.60;1771027;79;21214;-80
2023/05/18 09:27:16;;;;;;;13.48;10.05;;;;;;;31.00;22.26;100243.20;1762227;81;21749;-81
2023/05/18 09:30:21;;;;;;;16.37;10.00;;;;;;;31.02;22.23;100240.09;1760835;81;21214;-82
2023/05/18 09:33:27;;;;;;;15.58;10.03;;;;;;;30.93;22.38;100234.91;1760840;81;21218;-81
2023/05/18 09:36:28;;;;;;;12.60;9.08;;;;;;;30.76;22.06;100225.06;1762450;81;21771;-80
2023/05/18 09:39:20;;;;;;;19.87;9.65;;;;;;;30.70;22.68;100222.06;1780268;80;21215;-82
2023/05/18 09:42:26;;;;;;;11.08;8.83;;;;;;;30.76;22.92;100226.47;1760998;81;21202;-82
2023/05/18 09:45:32;;;;;;;12.45;8.55;;;;;;;30.99;23.09;100209.64;1782012;80;21148;-82
2023/05/18 09:48:38;;;;;;;14.23;9.20;;;;;;;30.99;22.31;100216.12;1762416;81;21203;-83
2023/05/18 09:51:45;;;;;;;18.95;9.13;;;;;;;31.01;22.26;100220.06;1781184;80;21183;-82
2023/05/18 09:54:50;;;;;;;14.10;8.35;;;;;;;30.88;21.44;100218.08;1762071;81;21183;-82
2023/05/18 09:57:57;;;;;;;11.00;8.78;;;;;;;30.90;21.58;100211.53;1759198;80;21121;-81
2023/05/18 10:01:06;;;;;;;10.53;8.05;;;;;;;31.02;21.42;100211.84;1759970;80;21694;-82
2023/05/18 10:04:12;;;;;;;16.77;8.73;;;;;;;31.09;22.00;100202.93;1755256;79;21140;-82
2023/05/18 10:07:22;;;;;;;12.00;8.05;;;;;;;31.09;22.09;100203.77;1769305;80;21788;-80
2023/05/18 10:10:31;;;;;;;15.75;8.43;;;;;;;30.99;21.47;100223.76;1782321;80;21725;-82
2023/05/18 10:13:41;;;;;;;12.98;8.70;;;;;;;31.01;21.51;100212.42;1793288;80;21194;-79
2023/05/18 10:16:48;;;;;;;15.90;8.10;;;;;;;30.83;21.69;100206.89;1790736;79;21127;-80
2023/05/18 10:19:55;;;;;;;10.78;8.48;;;;;;;30.77;22.19;100192.02;1748600;80;21650;-80
2023/05/18 10:23:01;;;;;;;12.35;7.95;;;;;;;31.08;22.03;100190.80;1762188;80;21162;-83
2023/05/18 10:26:06;;;;;;;11.97;7.85;;;;;;;31.24;22.05;100205.41;1813522;79;21143;-81
2023/05/18 10:29:13;;;;;;;10.90;8.33;;;;;;;31.24;21.08;100183.67;1796860;80;21174;-80
2023/05/18 10:32:19;;;;;;;26.10;8.43;;;;;;;31.07;21.84;100193.37;1766631;80;21167;-80
2023/05/18 10:35:27;;;;;;;16.50;8.30;;;;;;;31.06;21.49;100187.47;1741168;81;21143;-81
2023/05/18 10:38:34;;;;;;;11.12;8.20;;;;;;;31.09;21.60;100193.88;1779350;80;21190;-80
2023/05/18 10:41:39;;;;;;;14.05;7.85;;;;;;;31.17;20.75;100203.61;1761682;80;21772;-82
2023/05/18 10:44:45;;;;;;;11.10;8.10;;;;;;;31.13;21.44;100178.55;1745178;81;21187;-81
2023/05/18 10:47:53;;;;;;;11.05;8.40;;;;;;;30.99;22.10;100193.53;1766037;80;21192;-80
2023/05/18 10:51:04;;;;;;;15.55;8.65;;;;;;;31.00;22.20;100196.61;1762660;80;21152;-81
2023/05/18 10:54:15;;;;;;;16.33;9.03;;;;;;;31.10;21.13;100188.52;1762894;80;21172;-80
2023/05/18 10:57:25;;;;;;;11.90;7.08;;;;;;;31.15;20.89;100177.10;1759340;80;21838;-82
2023/05/18 11:00:25;;;;;;;14.28;8.53;;;;;;;31.06;20.68;100171.94;1730894;83;21238;-81
2023/05/18 11:03:32;;;;;;;14.80;7.37;;;;;;;31.14;20.44;100166.93;1773636;80;21186;-82
2023/05/18 11:06:38;;;;;;;16.32;8.48;;;;;;;31.25;20.72;100164.73;1759784;81;21179;-81
2023/05/18 11:09:50;;;;;;;11.05;7.45;;;;;;;31.49;20.85;100158.82;1780590;80;21651;-80
2023/05/18 11:12:56;;;;;;;9.50;7.50;;;;;;;31.42;20.87;100162.07;1761216;81;21170;-80
2023/05/18 11:16:06;;;;;;;15.40;7.87;;;;;;;31.46;20.95;100156.63;1757111;80;21160;-81
2023/05/18 11:19:15;;;;;;;13.10;8.10;;;;;;;31.60;20.77;100159.40;1761915;80;21891;-81
2023/05/18 11:22:20;;;;;;;15.45;7.83;;;;;;;31.60;20.04;100176.36;1775808;81;21200;-81
2023/05/18 11:25:40;;;;;;;12.65;7.67;;;;;;;31.25;20.09;100154.84;1765272;81;21155;-82
2023/05/18 11:28:50;;;;;;;10.25;8.08;;;;;;;31.37;20.11;100157.95;1793768;80;21179;-82
2023/05/18 11:31:59;;;;;;;;;;;;;;;31.27;20.15;100154.80;1790038;80;21203;-80
2023/05/18 11:35:09;;;;;;;13.85;7.90;;;;;;;31.25;21.37;100151.44;1787741;80;20244;-81
2023/05/18 11:38:14;;;;;;;19.00;7.55;;;;;;;31.58;21.13;100154.66;1793819;80;21152;-81
2023/05/18 11:41:43;;;;;;;15.88;7.72;;;;;;;31.68;20.40;100155.23;1787616;80;21445;-80
2023/05/18 11:44:48;;;;;;;10.72;7.53;;;;;;;31.48;20.01;100146.69;1794024;80;21183;-79
2023/05/18 11:47:54;;;;;;;11.15;7.53;;;;;;;31.57;20.58;100148.14;1787357;80;21752;-79
2023/05/18 11:51:08;;;;;;;10.95;8.13;;;;;;;31.65;20.16;100151.63;1787578;79;21175;-80
2023/05/18 11:54:12;;;;;;;16.50;7.62;;;;;;;31.66;20.86;100145.39;1782429;80;21187;-80
2023/05/18 11:57:19;;;;;;;12.10;8.08;;;;;;;31.50;20.21;100141.53;1761549;80;21120;-79
2023/05/18 12:00:24;;;;;;;11.12;7.33;;;;;;;31.45;20.64;100150.14;1782282;80;21128;-80
2023/05/18 12:03:31;;;;;;;15.58;7.50;;;;;;;31.42;19.86;100136.64;1794160;79;21211;-81
2023/05/18 12:06:36;;;;;;;11.75;7.08;;;;;;;31.57;20.97;100131.19;1808914;79;21188;-81
2023/05/18 12:09:45;;;;;;;13.95;6.40;;;;;;;31.77;20.72;100137.75;1811433;79;21179;-81
2023/05/18 12:12:58;;;;;;;12.05;7.90;;;;;;;31.68;19.07;100128.37;1817795;79;21167;-82
2023/05/18 12:16:04;;;;;;;15.93;7.47;;;;;;;31.63;19.52;100131.91;1786933;80;21785;-81
2023/05/18 12:19:11;;;;;;;16.97;7.70;;;;;;;31.76;20.40;100124.78;1786321;80;21171;-80
2023/05/18 12:22:17;;;;;;;10.23;7.00;;;;;;;31.69;20.42;100141.34;1786250;79;21163;-81
2023/05/18 12:25:24;;;;;;;12.85;7.08;;;;;;;31.44;20.34;100136.34;1790453;79;21717;-82
2023/05/18 12:28:31;;;;;;;11.20;6.65;;;;;;;31.36;20.15;100152.63;1801844;79;21212;-80
2023/05/18 12:31:31;;;;;;;13.32;7.05;;;;;;;31.23;20.60;100133.12;1784843;80;21139;-82
2023/05/18 12:34:24;;;;;;;12.93;6.40;;;;;;;31.15;20.31;100129.08;1790472;79;21696;-79
2023/05/18 12:37:33;;;;;;;9.50;6.47;;;;;;;30.94;19.50;100134.92;1791355;79;21155;-80
2023/05/18 12:40:37;;;;;;;10.38;6.00;;;;;;;30.83;20.02;100133.48;1792307;79;21168;-82
2023/05/18 12:43:42;;;;;;;12.10;7.10;;;;;;;30.86;20.66;100124.36;1784628;79;21234;-82
2023/05/18 12:46:49;;;;;;;12.23;6.33;;;;;;;30.85;20.57;100129.75;1789970;79;21478;-82
2023/05/18 12:49:58;;;;;;;11.15;6.20;;;;;;;30.92;21.03;100116.06;1801562;79;21172;-81
2023/05/18 12:53:04;;;;;;;11.03;6.72;;;;;;;30.94;20.94;100126.45;1804942;79;21140;-81
2023/05/18 12:56:08;;;;;;;14.05;6.25;;;;;;;30.98;21.22;100117.61;1817650;79;21159;-80
2023/05/18 12:59:07;;;;;;;8.10;5.90;;;;;;;31.12;20.41;100117.58;1812170;79;21187;-81
2023/05/18 13:02:14;;;;;;;15.18;6.33;;;;;;;31.42;19.68;100118.27;1784141;79;21712;-81
2023/05/18 13:05:21;;;;;;;11.40;5.87;;;;;;;31.52;19.90;100115.22;1816314;79;21183;-81
2023/05/18 13:08:28;;;;;;;12.85;6.65;;;;;;;31.46;19.96;100131.19;1816983;79;21195;-82
2023/05/18 13:11:33;;;;;;;7.65;5.42;;;;;;;31.51;20.18;100118.34;1817674;79;21723;-82
2023/05/18 13:14:44;;;;;;;9.75;6.35;;;;;;;31.69;20.73;100130.03;1816544;79;21175;-80
2023/05/18 13:18:10;;;;;;;7.33;5.62;;;;;;;31.62;20.35;100131.63;1816021;79;21132;-82
2023/05/18 13:21:16;;;;;;;10.18;5.87;;;;;;;31.30;20.67;100130.16;1817096;77;21779;-81
2023/05/18 13:24:22;;;;;;;13.55;5.97;;;;;;;30.86;20.73;100154.84;1820805;79;21174;-82
2023/05/18 13:27:28;;;;;;;17.17;6.28;;;;;;;30.70;20.96;100133.14;1821034;79;21218;-80
2023/05/18 13:30:34;;;;;;;7.72;6.10;;;;;;;30.58;21.04;100139.04;1821435;79;21140;-81
2023/05/18 13:33:39;;;;;;;11.85;6.67;;;;;;;30.39;21.71;100129.27;1821761;79;22620;-80
2023/05/18 13:36:46;;;;;;;8.08;5.92;;;;;;;30.43;22.02;100129.73;1820978;79;21190;-80
2023/05/18 13:39:52;;;;;;;12.75;5.60;;;;;;;30.45;21.89;100125.22;1821234;79;21229;-81
2023/05/18 13:42:58;;;;;;;10.70;6.15;;;;;;;30.46;21.35;100111.36;1822557;79;21692;-80
2023/05/18 13:46:05;;;;;;;9.60;5.80;;;;;;;30.43;21.62;100121.85;1821212;79;21151;-80
2023/05/18 13:49:12;;;;;;;13.55;6.25;;;;;;;30.52;21.72;100124.20;1821807;79;21187;-81
2023/05/18 13:52:16;;;;;;;10.53;5.97;;;;;;;30.61;21.08;100131.37;1820945;79;21182;-79
2023/05/18 13:55:22;;;;;;;8.20;5.70;;;;;;;30.69;21.26;100115.95;1821023;79;21181;-82
2023/05/18 13:58:30;;;;;;;12.65;7.65;;;;;;;30.58;21.18;100132.82;1822247;79;21159;-81
2023/05/18 14:01:36;;;;;;;8.80;5.97;;;;;;;30.67;21.14;100125.29;1822498;79;21119;-82
2023/05/18 14:04:42;;;;;;;8.25;5.42;;;;;;;30.45;21.03;100129.45;1821241;79;21719;-81
2023/05/18 14:07:51;;;;;;;7.28;5.37;;;;;;;30.40;21.20;100133.20;1822417;79;21684;-81
2023/05/18 14:10:57;;;;;;;9.15;5.30;;;;;;;30.35;21.61;100117.80;1822572;79;21152;-81
2023/05/18 14:14:03;;;;;;;9.75;5.72;;;;;;;30.32;21.49;100121.23;1821868;79;21719;-81
2023/05/18 14:17:08;;;;;;;8.78;5.72;;;;;;;30.44;21.79;100119.28;1822430;79;21135;-80
2023/05/18 14:20:14;;;;;;;21.02;5.60;;;;;;;30.48;21.32;100118.92;1820997;79;21207;-82